createdAt,value
2022-11-22T00:04:10.514Z,44.33
2022-11-22T00:09:12.257Z,40.00
2022-11-22T00:14:14.266Z,43.00
2022-11-22T00:19:16.235Z,41.80
2022-11-22T00:24:18.154Z,45.17
2022-11-22T00:29:19.987Z,36.80
2022-11-22T00:34:22.058Z,43.63
2022-11-22T00:39:23.785Z,41.95
2022-11-22T00:44:25.634Z,41.22
2022-11-22T00:49:27.748Z,36.13
2022-11-22T00:54:29.829Z,46.40
2022-11-22T00:59:31.862Z,39.72
2022-11-22T01:04:34.023Z,36.35
2022-11-22T01:09:35.883Z,41.47
2022-11-22T01:14:37.763Z,38.25
2022-11-22T01:19:39.790Z,39.67
2022-11-22T01:24:41.586Z,41.53
2022-11-22T01:29:43.356Z,36.60
2022-11-22T01:34:45.071Z,37.60
2022-11-22T01:39:46.905Z,42.95
2022-11-22T01:44:49.223Z,43.90
2022-11-22T01:50:04.672Z,44.97
2022-11-22T01:55:11.355Z,41.20
2022-11-22T02:00:16.768Z,45.00
2022-11-22T02:05:21.403Z,48.25
2022-11-22T02:10:26.521Z,40.75
2022-11-22T02:15:28.507Z,45.45
2022-11-22T02:20:30.284Z,38.15
2022-11-22T02:25:47.419Z,43.47
2022-11-22T02:30:49.205Z,47.17
2022-11-22T02:35:51.474Z,44.33
2022-11-22T02:41:02.963Z,51.78
2022-11-22T02:46:10.409Z,48.53
2022-11-22T02:51:17.259Z,42.03
2022-11-22T02:56:19.224Z,50.08
2022-11-22T03:01:21.024Z,41.40
2022-11-22T03:06:22.930Z,47.40
2022-11-22T03:11:25.482Z,47.80
2022-11-22T03:16:27.190Z,47.78
2022-11-22T03:21:28.878Z,45.13
2022-11-22T03:26:30.646Z,53.05
2022-11-22T03:31:32.589Z,49.83
2022-11-22T03:36:34.529Z,56.05
2022-11-22T03:41:36.321Z,48.28
2022-11-22T03:46:38.246Z,50.10
2022-11-22T03:51:40.135Z,49.80
2022-11-22T03:56:41.983Z,45.60
2022-11-22T04:01:43.946Z,51.85
2022-11-22T04:06:45.801Z,54.45
2022-11-22T04:11:47.552Z,54.63
2022-11-22T04:16:49.407Z,47.88
2022-11-22T04:21:51.212Z,47.97
2022-11-22T04:26:53.484Z,51.88
2022-11-22T04:32:13.887Z,51.72
2022-11-22T04:37:15.630Z,53.55
2022-11-22T04:42:35.870Z,51.20
2022-11-22T04:47:56.340Z,47.33
2022-11-22T04:52:58.214Z,51.83
2022-11-22T04:58:00.560Z,53.10
2022-11-22T05:03:03.266Z,55.63
2022-11-22T05:08:06.186Z,46.17
2022-11-22T05:13:08.046Z,45.20
2022-11-22T05:18:10.199Z,48.13
2022-11-22T05:23:31.612Z,47.13
2022-11-22T05:28:35.472Z,44.72
2022-11-22T05:33:38.822Z,48.05
2022-11-22T05:38:40.622Z,48.05
2022-11-22T05:43:42.802Z,55.53
2022-11-22T05:48:46.023Z,51.80
2022-11-22T05:53:48.405Z,47.70
2022-11-22T05:58:51.292Z,53.88
2022-11-22T06:03:54.035Z,49.80
2022-11-22T06:08:55.916Z,50.38
2022-11-22T06:13:59.926Z,56.05
2022-11-22T06:19:01.790Z,55.30
2022-11-22T06:24:03.763Z,50.42
2022-11-22T06:29:05.834Z,54.88
2022-11-22T06:34:07.622Z,53.03
2022-11-22T06:39:09.856Z,58.30
2022-11-22T06:44:11.888Z,58.97
2022-11-22T06:49:14.990Z,74.18
2022-11-22T06:54:16.709Z,86.07
2022-11-22T06:59:18.680Z,86.68
2022-11-22T07:04:20.544Z,64.85
2022-11-22T07:09:22.449Z,64.60
2022-11-22T07:14:24.321Z,60.15
2022-11-22T07:19:26.238Z,55.28
2022-11-22T07:24:28.849Z,48.05
2022-11-22T07:29:30.844Z,59.28
2022-11-22T07:34:32.855Z,50.65
2022-11-22T07:39:34.793Z,59.75
2022-11-22T07:44:36.665Z,55.75
2022-11-22T07:49:39.881Z,53.88
2022-11-22T07:54:41.782Z,87.47
2022-11-22T07:59:43.534Z,71.18
2022-11-22T08:04:45.292Z,60.08
2022-11-22T08:09:47.272Z,57.15
2022-11-22T08:14:49.318Z,59.08
2022-11-22T08:19:53.490Z,53.70
2022-11-22T08:24:55.340Z,56.58
2022-11-22T08:29:57.235Z,57.22
2022-11-22T08:34:59.303Z,63.45
2022-11-22T08:40:01.203Z,59.38
2022-11-22T08:45:03.336Z,66.22
2022-11-22T08:50:05.667Z,59.15
2022-11-22T08:55:08.069Z,54.10
2022-11-22T09:00:11.399Z,57.05
2022-11-22T09:05:13.288Z,56.08
2022-11-22T09:10:15.107Z,59.33
2022-11-22T09:15:17.391Z,56.35
2022-11-22T09:20:19.242Z,54.97
2022-11-22T09:25:21.384Z,66.32
2022-11-22T09:30:23.169Z,64.45
2022-11-22T09:35:24.954Z,58.53
2022-11-22T09:40:26.993Z,53.10
2022-11-22T09:45:41.210Z,62.28
2022-11-22T09:50:51.580Z,56.53
2022-11-22T09:55:56.954Z,54.25
2022-11-22T10:01:07.693Z,46.45
2022-11-22T10:06:20.952Z,47.63
2022-11-22T10:11:41.278Z,48.00
2022-11-22T10:16:56.921Z,45.80
2022-11-22T10:21:58.788Z,51.70
2022-11-22T10:27:01.061Z,46.85
2022-11-22T10:32:26.259Z,43.85
2022-11-22T10:37:39.574Z,46.42
2022-11-22T10:42:58.073Z,51.67
2022-11-22T10:48:05.805Z,43.92
2022-11-22T10:53:07.570Z,42.50
2022-11-22T10:58:22.017Z,50.95
2022-11-22T11:03:38.534Z,46.10
2022-11-22T11:09:36.241Z,46.53
2022-11-22T11:14:28.209Z,52.08
2022-11-22T11:19:37.139Z,61.70
2022-11-22T11:24:40.654Z,46.60
2022-11-22T11:30:03.540Z,45.88
2022-11-22T11:35:08.261Z,40.47
2022-11-22T11:40:31.796Z,46.20
2022-11-22T11:45:33.654Z,50.58
2022-11-22T11:50:36.027Z,46.00
2022-11-22T11:55:38.022Z,37.65
2022-11-22T12:00:40.502Z,36.42
2022-11-22T12:05:42.419Z,44.13
2022-11-22T12:11:00.214Z,39.72
2022-11-22T12:16:26.109Z,35.08
2022-11-22T12:21:39.454Z,35.22
2022-11-22T12:26:41.826Z,44.92
2022-11-22T12:31:57.645Z,33.28
2022-11-22T12:37:07.991Z,42.60
2022-11-22T12:42:20.045Z,45.33
2022-11-22T12:47:30.674Z,46.58
2022-11-22T12:52:51.092Z,45.22
2022-11-22T12:57:52.746Z,46.25
2022-11-22T13:02:58.817Z,54.70
2022-11-22T13:08:36.461Z,46.60
2022-11-22T13:13:48.622Z,37.20
2022-11-22T13:19:02.761Z,42.92
2022-11-22T13:24:26.353Z,45.00
2022-11-22T13:29:29.576Z,31.98
2022-11-22T13:34:32.708Z,33.22
2022-11-22T13:39:42.515Z,35.15
2022-11-22T13:49:57.910Z,35.08
2022-11-22T13:55:21.527Z,38.50
2022-11-22T14:00:23.333Z,30.15
2022-11-22T14:05:41.939Z,34.58
2022-11-22T14:10:52.939Z,31.33
2022-11-22T14:16:12.377Z,35.30
2022-11-22T14:21:29.266Z,32.58
2022-11-22T14:27:00.127Z,38.17
2022-11-22T14:32:19.883Z,39.92
2022-11-22T14:37:34.198Z,38.33
2022-11-22T14:42:47.298Z,35.28
2022-11-22T14:47:52.349Z,27.85
2022-11-22T14:52:57.588Z,28.17
2022-11-22T14:58:08.282Z,95.40
2022-11-22T15:03:24.763Z,60.20
2022-11-22T15:09:20.505Z,28.83
2022-11-22T15:14:56.805Z,27.00
2022-11-22T15:58:49.539Z,22.70
2022-11-22T16:09:00.796Z,23.67
2022-11-22T16:14:03.226Z,20.25
2022-11-22T16:19:34.682Z,24.33
2022-11-22T16:24:36.483Z,32.33
2022-11-22T16:29:38.526Z,29.15
2022-11-22T16:34:44.187Z,23.13
2022-11-22T16:39:46.117Z,23.35
2022-11-22T16:44:49.019Z,23.80
2022-11-22T16:49:50.992Z,27.45
2022-11-22T16:54:52.869Z,22.02
2022-11-22T16:59:54.762Z,19.95
2022-11-22T17:04:56.810Z,24.13
2022-11-22T17:09:58.737Z,23.25
2022-11-22T17:15:00.578Z,28.23
2022-11-22T17:20:02.636Z,28.08
2022-11-22T17:25:04.847Z,28.95
2022-11-22T17:30:07.319Z,23.25
2022-11-22T17:35:10.677Z,21.02
2022-11-22T17:40:13.386Z,20.17
2022-11-22T17:45:15.153Z,23.40
2022-11-22T17:50:17.156Z,22.52
2022-11-22T17:55:18.998Z,30.10
2022-11-22T18:00:24.283Z,20.15
2022-11-22T18:05:30.256Z,27.83
2022-11-22T18:10:32.083Z,24.13
2022-11-22T18:15:33.755Z,29.70
2022-11-22T18:20:37.045Z,26.92
2022-11-22T18:25:38.759Z,18.13
2022-11-22T18:30:44.250Z,18.48
2022-11-22T18:35:56.077Z,16.90
2022-11-22T18:41:07.702Z,18.23
2022-11-22T18:46:11.106Z,16.83
2022-11-22T18:51:13.471Z,15.82
2022-11-22T18:56:17.050Z,14.05
2022-11-22T19:01:21.739Z,14.68
2022-11-22T19:06:23.602Z,15.55
2022-11-22T19:11:26.055Z,19.52
2022-11-22T19:16:30.124Z,18.10
2022-11-22T19:21:32.079Z,17.27
2022-11-22T19:26:34.199Z,16.05
2022-11-22T19:31:36.994Z,20.75
2022-11-22T19:36:40.650Z,24.38
2022-11-22T19:41:43.381Z,36.13
2022-11-22T19:46:45.578Z,22.73
2022-11-22T19:51:47.356Z,16.42
2022-11-22T19:56:49.231Z,20.15
2022-11-22T20:01:51.048Z,30.40
2022-11-22T20:06:53.013Z,20.30
2022-11-22T20:11:54.734Z,22.10
2022-11-22T20:16:56.625Z,23.13
2022-11-22T20:21:58.334Z,19.52
2022-11-22T20:27:00.825Z,15.60
2022-11-22T20:32:02.785Z,17.17
2022-11-22T20:37:04.640Z,15.38
2022-11-22T20:42:32.925Z,14.48
2022-11-22T20:47:28.374Z,14.65
2022-11-22T20:52:30.154Z,14.63
2022-11-22T20:57:31.930Z,17.48
2022-11-22T21:02:34.643Z,15.45
2022-11-22T21:07:36.608Z,14.40
2022-11-22T21:12:38.414Z,16.17
2022-11-22T21:18:01.942Z,17.95
2022-11-22T21:23:01.972Z,17.02
2022-11-22T21:28:04.093Z,18.30
2022-11-22T21:33:06.002Z,18.08
2022-11-22T21:38:07.702Z,15.32
2022-11-22T21:43:09.619Z,14.27
2022-11-22T21:48:11.472Z,19.48
2022-11-22T21:53:14.219Z,15.20
2022-11-22T21:58:16.933Z,11.63
2022-11-22T22:03:18.863Z,14.57
2022-11-22T22:08:20.865Z,15.18
2022-11-22T22:13:22.617Z,17.80
2022-11-22T22:18:29.526Z,16.25
2022-11-22T22:23:33.309Z,18.95
2022-11-22T22:28:36.930Z,16.88
2022-11-22T22:33:41.041Z,23.52
2022-11-22T22:38:42.803Z,18.08
2022-11-22T22:43:47.460Z,17.73
2022-11-22T22:48:49.966Z,19.08
2022-11-22T22:53:52.002Z,19.15
2022-11-22T22:58:58.019Z,20.33
2022-11-22T23:04:01.635Z,22.42
2022-11-22T23:09:06.242Z,19.85
2022-11-22T23:14:08.017Z,19.90
2022-11-22T23:19:10.164Z,19.63
2022-11-22T23:24:12.235Z,22.33
2022-11-22T23:29:14.050Z,22.38
2022-11-22T23:34:15.947Z,19.58
2022-11-22T23:39:17.789Z,21.60
2022-11-22T23:44:19.506Z,22.27
2022-11-22T23:49:21.271Z,22.52
2022-11-22T23:54:23.017Z,20.90
2022-11-22T23:59:24.776Z,20.05
